Hilltop, Illinois
Current Conditions -  °F | °C
As of 12:56 AM on Monday 22 Dec 2014 (Local Time) from KBMI Reporting Station
Overcast Overcast  
Wind Chill: 24°   Ceiling: 3900
Heat Index: 33°   Visibility: 7mi
Dew Point: 30°   Wind: 12mph
Humidity: 89%   Direction: 160°SSE
Pressure: 29.96"   Gusts: NA
Location:  40.6191°N, 88.8038°W
Report Text: KBMI 220656Z AUTO 16010KT 7SM OVC039 01/M01 A2996 RMK AO2 T00051011 SLP158
Loading
Personal Weather Stations






























Interactive Weather Map New forecast layout! Learn more

10-Day Weather Forecast

Advertisements
Track Severe Weather on mobile